Terminal Aerodrome Forecast
Issued by NWS Blacksburg, VA

Home | Current Version | Previous Version | Text Only | Print | Product List | Glossary On
Versions: 1 2 3 4 5 6 7 8 9 10 11 12 13 14 15 16 17 18 19 20 21 22 23 24 25 26 27 28 29 30
000
FTUS41 KRNK 231133
TAFDAN
TAF
KDAN 231133Z 2312/2412 VRB03KT 4SM BR SCT005 BKN050 OVC110
      TEMPO 2312/2313 1SM BR BKN005
     FM231400 06005KT P6SM VCSH BKN030 OVC050
      TEMPO 2317/2321 SCT030 BKN050
     FM240300 06007KT P6SM VCSH BKN025 OVC045
     FM240600 07006KT 6SM BR OVC023=

USA.gov is the U.S. government's official web portal to all federal, state and local government web resources and services.